Time;durP1;ratioP1;P1;durP2;ratioP2;P2;SDS_P1;SDS_P2;PMS_P1;PMS_P2;Temp;Humidity;BMP_temperature;BMP_pressure;BME280_temperature;BME280_humidity;BME280_pressure;Samples;Min_cycle;Max_cycle;Signal;HPM_P1;HPM_P2
2024/01/26 00:01:57;;;;;;;2.70;2.50;;;7.50;72.20;;;;;;5098290;28;20024;-74
2024/01/26 00:04:22;;;;;;;2.90;2.60;;;7.50;72.20;;;;;;5097729;28;20028;-73
2024/01/26 00:06:48;;;;;;;2.80;2.60;;;7.50;72.30;;;;;;5079624;28;20028;-74
2024/01/26 00:09:15;;;;;;;2.70;2.50;;;7.50;72.20;;;;;;5079554;28;20027;-74
2024/01/26 00:11:42;;;;;;;2.47;2.28;;;7.50;72.20;;;;;;5098121;28;20456;-74
2024/01/26 00:14:08;;;;;;;2.70;2.50;;;7.50;72.30;;;;;;5097802;28;20370;-75
2024/01/26 00:16:36;;;;;;;2.60;2.40;;;7.50;72.30;;;;;;5097686;28;20415;-73
2024/01/26 00:19:01;;;;;;;3.00;2.70;;;7.40;72.20;;;;;;5097402;28;20031;-74
2024/01/26 00:21:27;;;;;;;3.13;2.83;;;7.50;72.30;;;;;;5113470;28;20368;-75
2024/01/26 00:23:53;;;;;;;2.80;2.60;;;7.40;72.20;;;;;;5113442;28;20020;-73
2024/01/26 00:26:19;;;;;;;2.83;2.63;;;7.50;72.40;;;;;;5079383;28;20507;-74
2024/01/26 00:28:44;;;;;;;2.70;2.50;;;7.40;72.40;;;;;;5097826;28;20074;-74
2024/01/26 00:31:17;;;;;;;3.00;2.70;;;7.40;73.00;;;;;;5097196;28;20044;-75
2024/01/26 00:33:43;;;;;;;2.80;2.60;;;7.40;72.30;;;;;;5079186;28;20377;-75
2024/01/26 00:36:09;;;;;;;2.75;2.55;;;7.40;72.30;;;;;;5079194;28;20051;-75
2024/01/26 00:38:35;;;;;;;2.78;2.40;;;7.40;72.30;;;;;;5097580;28;20036;-73
2024/01/26 00:41:01;;;;;;;2.92;2.70;;;7.40;72.30;;;;;;5096898;28;20016;-74
2024/01/26 00:43:27;;;;;;;2.70;2.50;;;7.30;72.40;;;;;;5097577;28;20441;-75
2024/01/26 00:45:53;;;;;;;2.70;2.50;;;7.40;72.50;;;;;;5113198;28;20024;-75
2024/01/26 00:48:18;;;;;;;2.80;2.60;;;7.30;72.50;;;;;;5097613;28;20016;-75
2024/01/26 00:50:46;;;;;;;3.13;2.80;;;7.30;72.40;;;;;;5079082;28;20020;-74
2024/01/26 00:53:12;;;;;;;2.90;2.60;;;7.30;72.40;;;;;;5097301;28;20108;-75
2024/01/26 00:55:38;;;;;;;3.25;2.95;;;7.30;72.40;;;;;;5078824;28;20031;-74
2024/01/26 00:58:05;;;;;;;3.30;3.00;;;7.30;72.50;;;;;;5108998;28;20040;-74
2024/01/26 01:00:30;;;;;;;3.22;2.92;;;7.30;72.50;;;;;;5076708;28;20115;-74
2024/01/26 01:02:56;;;;;;;3.15;2.80;;;7.20;72.40;;;;;;5075623;28;20110;-74
2024/01/26 01:05:22;;;;;;;3.05;2.75;;;7.30;72.50;;;;;;5076861;28;20032;-75
2024/01/26 01:07:48;;;;;;;3.10;2.80;;;7.20;72.50;;;;;;5077356;28;20506;-74
2024/01/26 01:10:15;;;;;;;3.00;2.80;;;7.20;72.50;;;;;;5077588;28;20100;-74
2024/01/26 01:12:42;;;;;;;3.35;2.83;;;7.20;72.50;;;;;;5109692;28;20032;-74
2024/01/26 01:15:11;;;;;;;3.20;2.90;;;7.20;72.50;;;;;;5076109;28;20027;-74
2024/01/26 01:17:42;;;;;;;3.08;2.83;;;7.20;72.50;;;;;;5076771;28;20374;-73
2024/01/26 01:20:10;;;;;;;3.30;3.00;;;7.20;72.50;;;;;;5076061;28;20024;-74
2024/01/26 01:22:37;;;;;;;3.50;2.75;;;7.20;72.50;;;;;;5075962;28;20021;-75
2024/01/26 01:25:04;;;;;;;3.13;2.83;;;7.20;72.40;;;;;;5074949;28;20407;-73
2024/01/26 01:27:31;;;;;;;2.92;2.72;;;7.20;72.50;;;;;;5075772;28;20063;-73
2024/01/26 01:29:58;;;;;;;3.25;2.95;;;7.10;72.50;;;;;;5076615;28;20078;-74
2024/01/26 01:32:24;;;;;;;3.03;2.72;;;7.10;72.50;;;;;;5076069;28;20492;-73
2024/01/26 01:34:50;;;;;;;2.90;2.70;;;7.20;72.50;;;;;;5076292;28;20020;-74
2024/01/26 01:37:16;;;;;;;3.25;2.90;;;7.10;72.50;;;;;;5074604;28;20024;-74
2024/01/26 01:39:42;;;;;;;3.10;2.80;;;7.10;72.50;;;;;;5076157;28;20042;-75
2024/01/26 01:42:13;;;;;;;2.88;2.60;;;7.10;72.50;;;;;;5075900;28;20017;-74
2024/01/26 01:44:40;;;;;;;3.05;2.78;;;7.10;72.50;;;;;;5076135;28;20116;-74
2024/01/26 01:47:08;;;;;;;3.15;2.70;;;7.10;72.40;;;;;;5074302;28;20036;-75
2024/01/26 01:49:34;;;;;;;2.92;2.67;;;7.10;72.40;;;;;;5075975;28;20028;-71
2024/01/26 01:52:01;;;;;;;3.15;2.85;;;7.10;72.30;;;;;;5075685;28;20459;-74
2024/01/26 01:54:29;;;;;;;2.95;2.67;;;7.10;72.30;;;;;;5074200;28;20017;-73
2024/01/26 01:56:57;;;;;;;3.20;2.85;;;7.10;72.30;;;;;;5082781;28;20048;-74
2024/01/26 01:59:23;;;;;;;2.55;2.35;;;7.10;72.40;;;;;;5095949;28;20154;-74
2024/01/26 02:01:50;;;;;;;2.63;2.42;;;7.10;72.40;;;;;;5096153;28;20020;-74
2024/01/26 02:04:15;;;;;;;2.88;2.50;;;7.10;72.30;;;;;;5078055;28;20027;-74
2024/01/26 02:06:52;;;;;;;2.65;2.45;;;7.10;72.30;;;;;;5111175;28;20369;-74
2024/01/26 02:09:17;;;;;;;2.78;2.58;;;7.10;72.30;;;;;;5078062;28;20404;-74
2024/01/26 02:11:43;;;;;;;2.58;2.38;;;7.10;72.30;;;;;;5094681;28;20048;-73
2024/01/26 02:14:09;;;;;;;2.60;2.40;;;7.10;72.30;;;;;;5111190;28;20051;-75
2024/01/26 02:16:35;;;;;;;2.80;2.50;;;7.10;72.30;;;;;;5095347;28;20032;-74
2024/01/26 02:19:00;;;;;;;2.97;2.60;;;7.10;72.30;;;;;;5095349;28;20020;-73
2024/01/26 02:21:26;;;;;;;2.38;2.20;;;7.10;72.30;;;;;;5094958;28;20020;-74
2024/01/26 02:23:52;;;;;;;2.58;2.38;;;7.10;72.30;;;;;;5096108;28;20024;-74
2024/01/26 02:26:18;;;;;;;2.90;2.70;;;7.10;72.20;;;;;;5110792;28;20039;-74
2024/01/26 02:28:43;;;;;;;2.55;2.35;;;7.10;72.20;;;;;;5095263;28;20020;-72
2024/01/26 02:31:09;;;;;;;2.70;2.50;;;7.00;72.10;;;;;;5095093;28;20020;-74
2024/01/26 02:33:35;;;;;;;2.70;2.50;;;7.10;72.20;;;;;;5094839;28;20016;-73
2024/01/26 02:36:00;;;;;;;2.67;2.47;;;7.10;72.20;;;;;;5094800;28;20173;-73
2024/01/26 02:38:26;;;;;;;2.88;2.65;;;7.10;72.10;;;;;;5095108;28;20410;-74
2024/01/26 02:40:52;;;;;;;2.80;2.60;;;7.00;72.10;;;;;;5095225;28;20024;-73
2024/01/26 02:43:18;;;;;;;2.90;2.60;;;7.00;72.10;;;;;;5094819;28;20357;-74
2024/01/26 02:45:46;;;;;;;3.30;3.00;;;7.00;72.10;;;;;;5094817;28;20020;-73
2024/01/26 02:48:12;;;;;;;2.70;2.50;;;7.00;72.10;;;;;;5094416;28;20020;-73
2024/01/26 02:50:38;;;;;;;3.00;2.80;;;7.00;72.00;;;;;;5095102;28;20028;-74
2024/01/26 02:53:03;;;;;;;2.63;2.42;;;7.00;72.00;;;;;;5110582;28;20020;-73
2024/01/26 02:55:29;;;;;;;2.75;2.50;;;7.00;72.00;;;;;;5076539;28;20408;-73
2024/01/26 02:57:55;;;;;;;2.95;2.65;;;7.00;72.00;;;;;;5095674;28;20093;-75
2024/01/26 03:00:21;;;;;;;2.78;2.58;;;7.00;72.00;;;;;;5095343;28;20024;-74
2024/01/26 03:02:47;;;;;;;2.60;2.40;;;7.00;71.90;;;;;;5094649;28;20023;-74
2024/01/26 03:05:13;;;;;;;2.83;2.45;;;7.00;72.50;;;;;;5110892;28;20031;-73
2024/01/26 03:07:39;;;;;;;2.50;2.30;;;7.00;71.90;;;;;;5110708;28;20035;-74
2024/01/26 03:10:05;;;;;;;2.58;2.38;;;7.00;71.90;;;;;;5094512;28;20505;-74
2024/01/26 03:12:33;;;;;;;2.83;2.50;;;7.00;71.90;;;;;;5076274;28;20055;-72
2024/01/26 03:14:59;;;;;;;2.60;2.38;;;7.00;71.90;;;;;;5094727;28;20030;-74
2024/01/26 03:17:25;;;;;;;2.90;2.50;;;7.00;71.80;;;;;;5076769;28;20028;-75
2024/01/26 03:19:51;;;;;;;2.50;2.30;;;7.00;71.70;;;;;;5110076;28;20020;-73
2024/01/26 03:22:16;;;;;;;2.50;2.30;;;6.90;71.80;;;;;;5110069;28;20026;-73
2024/01/26 03:24:44;;;;;;;2.50;2.30;;;6.90;71.90;;;;;;5076298;28;20335;-74
2024/01/26 03:27:10;;;;;;;2.45;2.25;;;6.90;71.90;;;;;;5075749;28;20032;-73
2024/01/26 03:29:36;;;;;;;2.65;2.45;;;6.90;71.90;;;;;;5109954;28;20047;-74
2024/01/26 03:32:01;;;;;;;2.60;2.40;;;6.90;71.90;;;;;;5093850;28;20024;-74
2024/01/26 03:34:27;;;;;;;2.38;2.20;;;6.90;71.90;;;;;;5094070;28;20036;-74
2024/01/26 03:36:53;;;;;;;2.60;2.40;;;6.80;71.80;;;;;;5109803;28;20023;-74
2024/01/26 03:39:19;;;;;;;3.20;2.40;;;6.80;71.90;;;;;;5093746;28;20028;-73
2024/01/26 03:41:44;;;;;;;2.25;2.08;;;6.80;71.80;;;;;;5076118;28;20020;-75
2024/01/26 03:44:11;;;;;;;2.38;2.22;;;6.90;71.80;;;;;;5075884;28;20024;-74
2024/01/26 03:46:42;;;;;;;2.30;2.20;;;6.80;71.70;;;;;;5094210;28;20085;-75
2024/01/26 03:49:09;;;;;;;2.40;2.20;;;6.80;71.60;;;;;;5094189;28;20016;-73
2024/01/26 03:51:38;;;;;;;2.80;2.60;;;6.80;71.60;;;;;;5093993;28;20016;-75
2024/01/26 03:54:04;;;;;;;2.53;2.20;;;6.80;71.60;;;;;;5075836;28;20019;-74
2024/01/26 03:56:30;;;;;;;2.60;2.40;;;6.80;71.70;;;;;;5075455;28;20036;-74
2024/01/26 03:58:56;;;;;;;2.30;2.20;;;6.80;71.70;;;;;;5076365;28;20023;-74
2024/01/26 04:01:21;;;;;;;2.50;2.30;;;6.80;71.70;;;;;;5093561;28;20441;-75
2024/01/26 04:03:48;;;;;;;2.20;2.10;;;6.80;71.70;;;;;;5109546;28;20028;-74
2024/01/26 04:06:14;;;;;;;2.20;2.10;;;6.80;71.60;;;;;;5075547;28;20100;-74
2024/01/26 04:08:39;;;;;;;2.58;2.38;;;6.80;71.60;;;;;;5094128;28;20024;-74
2024/01/26 04:11:05;;;;;;;2.70;2.50;;;6.80;71.60;;;;;;5093498;28;20028;-74
2024/01/26 04:13:31;;;;;;;2.60;2.40;;;6.80;71.60;;;;;;5075628;28;20032;-74
2024/01/26 04:15:57;;;;;;;2.40;2.20;;;6.80;71.60;;;;;;5094311;28;20105;-75
2024/01/26 04:18:23;;;;;;;2.50;2.30;;;6.80;71.60;;;;;;5093718;28;20020;-74
2024/01/26 04:20:48;;;;;;;2.67;2.47;;;6.80;71.60;;;;;;5093838;28;20052;-74
2024/01/26 04:23:15;;;;;;;3.05;2.50;;;6.80;71.50;;;;;;5075158;28;20366;-74
2024/01/26 04:25:41;;;;;;;3.00;2.40;;;6.80;71.50;;;;;;5075528;28;20107;-74
2024/01/26 04:28:07;;;;;;;2.50;2.30;;;6.80;71.50;;;;;;5075964;28;20678;-73
2024/01/26 04:30:34;;;;;;;2.55;2.35;;;6.80;71.40;;;;;;5094688;28;20074;-74
2024/01/26 04:33:01;;;;;;;2.60;2.40;;;6.80;71.40;;;;;;5094435;28;20062;-74
2024/01/26 04:35:26;;;;;;;2.85;2.63;;;6.80;71.40;;;;;;5097983;28;20059;-74
2024/01/26 04:37:52;;;;;;;2.50;2.30;;;6.80;71.40;;;;;;5098106;28;20052;-72
2024/01/26 04:40:19;;;;;;;2.63;2.42;;;6.80;71.40;;;;;;5079650;28;20031;-75
2024/01/26 04:42:45;;;;;;;2.53;2.33;;;6.80;71.30;;;;;;5079170;28;20024;-73
2024/01/26 04:45:10;;;;;;;2.90;2.60;;;6.80;71.30;;;;;;5097665;28;20022;-74
2024/01/26 04:47:36;;;;;;;2.67;2.47;;;6.80;71.30;;;;;;5112864;28;20054;-73
2024/01/26 04:50:03;;;;;;;2.35;2.15;;;6.80;71.40;;;;;;5097413;28;20024;-73
2024/01/26 04:52:29;;;;;;;2.40;2.20;;;6.80;71.30;;;;;;5097048;28;20073;-73
2024/01/26 04:54:55;;;;;;;2.40;2.22;;;6.90;71.30;;;;;;5097619;28;20102;-73
2024/01/26 04:57:20;;;;;;;2.30;2.20;;;6.90;71.30;;;;;;5078842;28;20475;-73
2024/01/26 04:59:46;;;;;;;2.13;2.03;;;6.90;71.20;;;;;;5078980;28;20055;-73
2024/01/26 05:02:12;;;;;;;2.30;2.20;;;6.90;71.10;;;;;;5112638;28;20020;-73
2024/01/26 05:04:38;;;;;;;2.58;2.38;;;6.90;71.10;;;;;;5113352;28;20027;-73
2024/01/26 05:07:04;;;;;;;2.55;2.35;;;6.90;71.10;;;;;;5112855;28;20119;-73
2024/01/26 05:09:29;;;;;;;2.78;2.38;;;6.90;71.00;;;;;;5097186;28;20353;-75
2024/01/26 05:11:55;;;;;;;2.50;2.30;;;6.90;71.00;;;;;;5096440;28;20017;-75
2024/01/26 05:14:22;;;;;;;2.90;2.60;;;6.90;71.00;;;;;;5096926;28;20050;-74
2024/01/26 05:16:48;;;;;;;2.75;2.55;;;6.90;71.00;;;;;;5078744;28;20123;-74
2024/01/26 05:19:14;;;;;;;2.40;2.30;;;6.90;70.90;;;;;;5096847;28;20059;-73
2024/01/26 05:21:40;;;;;;;2.60;2.40;;;6.90;71.00;;;;;;5096621;28;20077;-73
2024/01/26 05:24:06;;;;;;;2.65;2.45;;;6.90;70.90;;;;;;5096071;28;20469;-72
2024/01/26 05:26:32;;;;;;;2.60;2.40;;;6.90;70.90;;;;;;5078103;28;20032;-73
2024/01/26 05:28:58;;;;;;;2.47;2.30;;;6.90;70.90;;;;;;5112090;28;20439;-75
2024/01/26 05:31:24;;;;;;;2.33;2.13;;;6.90;70.90;;;;;;5078038;28;20016;-74
2024/01/26 05:33:49;;;;;;;2.50;2.30;;;6.90;70.90;;;;;;5112013;28;20047;-74
2024/01/26 05:36:15;;;;;;;2.33;2.13;;;6.90;70.90;;;;;;5096120;28;20024;-74
2024/01/26 05:38:41;;;;;;;2.28;2.17;;;6.90;71.00;;;;;;5111890;28;20024;-79
2024/01/26 05:41:07;;;;;;;2.60;2.40;;;6.90;70.90;;;;;;5096202;28;20049;-77
2024/01/26 05:43:32;;;;;;;2.50;2.30;;;6.90;70.90;;;;;;5077843;28;20026;-80
2024/01/26 05:45:58;;;;;;;2.33;2.20;;;6.90;70.90;;;;;;5077475;28;20024;-77
2024/01/26 05:48:24;;;;;;;2.47;2.28;;;6.90;70.90;;;;;;5096341;28;20446;-81
2024/01/26 05:50:50;;;;;;;2.60;2.40;;;6.90;70.90;;;;;;5111755;28;20024;-80
2024/01/26 05:53:18;;;;;;;2.50;2.30;;;6.90;70.90;;;;;;5095807;28;20027;-69
2024/01/26 05:55:44;;;;;;;2.53;2.33;;;6.90;70.90;;;;;;5112379;28;20024;-71
2024/01/26 05:58:09;;;;;;;2.55;2.35;;;6.90;70.80;;;;;;5096314;28;20370;-71
2024/01/26 06:00:35;;;;;;;2.55;2.35;;;6.90;70.80;;;;;;5095285;28;20015;-70
2024/01/26 06:03:01;;;;;;;2.70;2.50;;;6.90;70.80;;;;;;5077523;28;20016;-71
2024/01/26 06:05:27;;;;;;;2.35;2.20;;;6.90;70.80;;;;;;5112074;28;20079;-71
2024/01/26 06:07:52;;;;;;;3.08;2.67;;;7.00;70.80;;;;;;5077262;28;20035;-71
2024/01/26 06:10:18;;;;;;;2.63;2.42;;;7.00;70.80;;;;;;5111305;28;20112;-70
2024/01/26 06:12:45;;;;;;;2.63;2.42;;;7.00;70.80;;;;;;5078283;28;20115;-71
2024/01/26 06:15:11;;;;;;;3.13;2.50;;;7.00;70.80;;;;;;5111459;28;20031;-69
2024/01/26 06:17:38;;;;;;;3.10;2.53;;;7.00;70.80;;;;;;5111097;28;20024;-71
2024/01/26 06:20:05;;;;;;;3.22;2.92;;;7.00;70.70;;;;;;5095504;28;20388;-72
2024/01/26 06:22:31;;;;;;;3.40;2.90;;;7.00;70.70;;;;;;5077203;28;20024;-71
2024/01/26 06:24:56;;;;;;;2.75;2.55;;;7.00;70.70;;;;;;5094205;28;20032;-72
2024/01/26 06:27:22;;;;;;;2.80;2.58;;;7.10;70.80;;;;;;5094341;28;20039;-70
2024/01/26 06:29:48;;;;;;;3.20;2.80;;;7.10;70.70;;;;;;5077007;28;20091;-74
2024/01/26 06:32:14;;;;;;;3.75;2.97;;;7.10;70.60;;;;;;5095103;28;20032;-71
2024/01/26 06:34:41;;;;;;;2.95;2.70;;;7.10;71.20;;;;;;5094473;28;20027;-72
2024/01/26 06:37:08;;;;;;;3.20;2.90;;;7.10;70.60;;;;;;5110701;28;20085;-70
2024/01/26 06:39:33;;;;;;;3.97;3.10;;;7.10;70.50;;;;;;5094475;28;20095;-70
2024/01/26 06:41:59;;;;;;;3.53;2.80;;;7.10;70.50;;;;;;5076188;28;20169;-73
2024/01/26 06:44:25;;;;;;;3.80;3.10;;;7.20;70.50;;;;;;5094760;28;20023;-72
2024/01/26 06:46:51;;;;;;;3.60;3.00;;;7.20;70.50;;;;;;5094716;28;20034;-71
2024/01/26 06:49:17;;;;;;;3.92;2.80;;;7.20;70.50;;;;;;5076524;28;20028;-72
2024/01/26 06:51:43;;;;;;;3.33;3.00;;;7.20;70.40;;;;;;5096047;28;20024;-71
2024/01/26 06:54:09;;;;;;;3.50;3.00;;;7.20;70.40;;;;;;5076812;28;20012;-70
2024/01/26 06:56:35;;;;;;;3.85;2.90;;;7.30;70.40;;;;;;5093712;28;20044;-71
2024/01/26 06:59:01;;;;;;;3.30;3.00;;;7.30;70.40;;;;;;5094845;28;20028;-73
2024/01/26 07:01:27;;;;;;;3.40;3.10;;;7.30;70.40;;;;;;5094782;28;20024;-72
2024/01/26 07:03:53;;;;;;;3.83;3.05;;;7.30;70.30;;;;;;5075619;28;20485;-72
2024/01/26 07:06:19;;;;;;;3.10;2.80;;;7.30;70.30;;;;;;5094751;28;20034;-73
2024/01/26 07:08:45;;;;;;;3.25;2.92;;;7.30;70.30;;;;;;5094106;28;20031;-72
2024/01/26 07:11:11;;;;;;;4.18;3.00;;;7.30;70.30;;;;;;5094076;28;20020;-69
2024/01/26 07:13:37;;;;;;;3.25;2.95;;;7.30;70.30;;;;;;5076227;28;20128;-71
2024/01/26 07:16:03;;;;;;;3.78;3.03;;;7.40;70.30;;;;;;5094287;28;20399;-72
2024/01/26 07:18:28;;;;;;;3.42;3.13;;;7.40;70.30;;;;;;5094501;28;20365;-72
2024/01/26 07:20:55;;;;;;;3.50;3.20;;;7.40;70.20;;;;;;5094175;28;20024;-72
2024/01/26 07:23:21;;;;;;;3.10;2.80;;;7.40;70.10;;;;;;5077127;28;20020;-73
2024/01/26 07:25:47;;;;;;;3.70;3.20;;;7.50;70.20;;;;;;5075538;28;20031;-76
2024/01/26 07:28:12;;;;;;;3.55;3.22;;;7.50;70.20;;;;;;5076418;28;20032;-74
2024/01/26 07:30:38;;;;;;;3.97;3.20;;;7.50;70.10;;;;;;5074997;28;20027;-78
2024/01/26 07:33:06;;;;;;;3.60;3.08;;;7.50;70.10;;;;;;5074968;28;20024;-76
2024/01/26 07:35:32;;;;;;;3.83;3.30;;;7.50;70.10;;;;;;5075731;28;20169;-76
2024/01/26 07:37:58;;;;;;;3.53;3.10;;;7.60;70.00;;;;;;5093681;28;20067;-74
2024/01/26 07:40:23;;;;;;;3.47;3.10;;;7.60;70.00;;;;;;5093335;28;20109;-78
2024/01/26 07:42:49;;;;;;;3.50;3.15;;;7.60;69.90;;;;;;5093734;28;20026;-73
2024/01/26 07:45:16;;;;;;;3.47;3.15;;;7.70;69.80;;;;;;5093174;28;20107;-74
2024/01/26 07:47:41;;;;;;;3.88;3.30;;;7.70;69.80;;;;;;5076005;28;20390;-74
2024/01/26 07:50:07;;;;;;;3.97;3.40;;;7.70;69.70;;;;;;5076399;28;20020;-75
2024/01/26 07:52:33;;;;;;;3.65;3.20;;;7.60;69.70;;;;;;5094452;28;20024;-74
2024/01/26 07:54:59;;;;;;;3.47;3.05;;;7.70;69.70;;;;;;5076797;28;20446;-75
2024/01/26 07:57:26;;;;;;;3.42;3.00;;;7.60;69.70;;;;;;5076457;28;20097;-74
2024/01/26 07:59:52;;;;;;;4.50;3.65;;;7.70;69.80;;;;;;5093890;28;20086;-74
2024/01/26 08:02:18;;;;;;;4.00;3.58;;;7.70;69.80;;;;;;5075773;28;20024;-74
2024/01/26 08:04:44;;;;;;;4.53;3.88;;;7.70;69.80;;;;;;5076255;28;20035;-73
2024/01/26 08:07:09;;;;;;;4.55;3.58;;;7.80;69.80;;;;;;5093678;28;20103;-73
2024/01/26 08:09:35;;;;;;;4.13;3.53;;;7.80;69.70;;;;;;5077704;28;20024;-73
2024/01/26 08:12:01;;;;;;;4.25;3.67;;;7.80;69.60;;;;;;5079596;28;20049;-77
2024/01/26 08:14:27;;;;;;;4.15;3.65;;;7.90;69.60;;;;;;5098171;28;20017;-73
2024/01/26 08:16:53;;;;;;;4.57;3.63;;;7.90;69.50;;;;;;5097793;28;20027;-74
2024/01/26 08:19:18;;;;;;;4.47;3.85;;;8.00;69.50;;;;;;5098292;28;20369;-73
2024/01/26 08:21:45;;;;;;;5.13;4.00;;;8.00;69.40;;;;;;5077839;28;20104;-73
2024/01/26 08:24:10;;;;;;;4.45;3.78;;;8.00;69.40;;;;;;5096110;28;20016;-75
2024/01/26 08:26:36;;;;;;;4.80;4.30;;;8.00;69.30;;;;;;5097083;28;20039;-73
2024/01/26 08:29:02;;;;;;;5.50;4.88;;;8.00;69.30;;;;;;5096768;28;20105;-73
2024/01/26 08:31:29;;;;;;;4.85;4.28;;;8.10;69.30;;;;;;5096446;28;20454;-74
2024/01/26 08:33:55;;;;;;;4.90;4.38;;;8.10;69.30;;;;;;5078199;28;20028;-74
2024/01/26 08:36:20;;;;;;;5.00;4.50;;;8.10;69.30;;;;;;5096444;28;20030;-73
2024/01/26 08:38:46;;;;;;;5.57;4.78;;;8.10;69.20;;;;;;5096331;28;20063;-71
2024/01/26 08:41:12;;;;;;;6.53;4.88;;;8.10;69.20;;;;;;5097005;28;20414;-71
2024/01/26 08:43:38;;;;;;;6.00;5.15;;;8.10;69.20;;;;;;5096604;28;20034;-72
2024/01/26 08:46:04;;;;;;;5.47;4.78;;;8.10;69.10;;;;;;5095713;28;20111;-70
2024/01/26 08:48:30;;;;;;;5.95;5.35;;;8.10;69.00;;;;;;5096338;28;20120;-69
2024/01/26 08:50:55;;;;;;;5.30;4.80;;;8.00;69.00;;;;;;5096447;28;20049;-71
2024/01/26 08:53:21;;;;;;;5.78;5.00;;;8.00;69.00;;;;;;5096634;28;20073;-71
2024/01/26 08:55:47;;;;;;;5.05;4.47;;;8.00;69.10;;;;;;5078578;28;20089;-73
2024/01/26 08:58:13;;;;;;;5.47;4.88;;;8.00;69.10;;;;;;5097055;28;20458;-78
2024/01/26 09:00:38;;;;;;;5.78;4.72;;;8.00;69.10;;;;;;5079596;28;20144;-81
2024/01/26 09:03:04;;;;;;;5.18;4.32;;;7.90;69.10;;;;;;5079224;28;20028;-80
2024/01/26 09:05:30;;;;;;;6.00;4.60;;;7.90;69.10;;;;;;5078277;28;20032;-75
2024/01/26 09:07:57;;;;;;;5.93;4.85;;;7.90;69.10;;;;;;5096277;28;20450;-77
2024/01/26 09:10:24;;;;;;;5.47;4.40;;;7.80;69.10;;;;;;5096880;28;20024;-79
2024/01/26 09:12:50;;;;;;;4.88;4.35;;;7.80;69.10;;;;;;5096495;28;20016;-79
2024/01/26 09:15:16;;;;;;;5.43;4.93;;;7.80;69.10;;;;;;5078526;28;20024;-81
2024/01/26 09:17:42;;;;;;;4.75;4.18;;;7.70;69.10;;;;;;5096109;28;20359;-82
2024/01/26 09:20:09;;;;;;;5.03;4.50;;;7.80;69.20;;;;;;5096052;28;20059;-83
2024/01/26 09:22:35;;;;;;;5.35;4.07;;;7.80;69.30;;;;;;5096478;28;20026;-79
2024/01/26 09:25:01;;;;;;;5.00;4.32;;;7.70;69.30;;;;;;5078472;28;20115;-78
2024/01/26 09:27:26;;;;;;;4.90;4.03;;;7.80;69.30;;;;;;5078167;28;20542;-79
2024/01/26 09:29:52;;;;;;;4.85;3.90;;;7.80;69.30;;;;;;5081313;28;20358;-83
2024/01/26 09:32:18;;;;;;;4.40;4.00;;;7.80;69.30;;;;;;5077631;28;20088;-79
2024/01/26 09:34:44;;;;;;;4.93;3.97;;;7.80;69.30;;;;;;5080476;28;20016;-81
2024/01/26 09:37:10;;;;;;;4.20;3.80;;;7.70;69.20;;;;;;5080005;28;20450;-76
2024/01/26 09:39:36;;;;;;;4.00;3.58;;;7.70;69.30;;;;;;5078912;28;20365;-79
2024/01/26 09:42:03;;;;;;;5.07;4.15;;;7.70;69.30;;;;;;5079224;28;20030;-81
2024/01/26 09:44:29;;;;;;;6.47;4.50;;;7.70;69.30;;;;;;5078967;28;20458;-73
2024/01/26 09:46:57;;;;;;;4.78;4.28;;;7.70;69.30;;;;;;5077987;28;20031;-76
2024/01/26 09:49:26;;;;;;;4.63;4.07;;;7.60;69.30;;;;;;5078023;28;20119;-80
2024/01/26 09:51:51;;;;;;;4.13;3.70;;;7.70;69.30;;;;;;5077122;28;20020;-80
2024/01/26 09:54:19;;;;;;;5.15;4.00;;;7.60;69.40;;;;;;5077706;28;20465;-78
2024/01/26 09:56:46;;;;;;;4.32;3.70;;;7.60;69.40;;;;;;5076942;28;20072;-79
2024/01/26 09:59:12;;;;;;;4.72;3.65;;;7.60;69.40;;;;;;5095603;28;20012;-80
2024/01/26 10:01:39;;;;;;;4.35;3.83;;;7.60;69.40;;;;;;5077500;28;20028;-77
2024/01/26 10:04:07;;;;;;;4.25;3.70;;;7.60;69.40;;;;;;5095770;28;20107;-82
2024/01/26 10:06:33;;;;;;;4.40;3.80;;;7.60;69.50;;;;;;5077591;28;20063;-79
2024/01/26 10:08:59;;;;;;;4.53;3.83;;;7.60;69.40;;;;;;5096666;28;20059;-81
2024/01/26 10:11:26;;;;;;;5.10;4.22;;;7.60;69.50;;;;;;5078243;28;20398;-80
2024/01/26 10:13:51;;;;;;;4.22;3.60;;;7.60;69.50;;;;;;5077167;28;20024;-78
2024/01/26 10:16:17;;;;;;;4.13;3.60;;;7.70;69.50;;;;;;5077507;28;20115;-84
2024/01/26 10:18:45;;;;;;;3.58;3.28;;;7.70;69.40;;;;;;5077837;28;20016;-81
2024/01/26 10:21:12;;;;;;;4.15;3.70;;;7.70;69.30;;;;;;5095276;28;20036;-80
2024/01/26 10:23:37;;;;;;;5.93;3.80;;;7.70;69.20;;;;;;5095561;28;20415;-81
2024/01/26 10:26:03;;;;;;;4.85;3.80;;;7.80;69.20;;;;;;5077543;28;20059;-76
2024/01/26 10:28:29;;;;;;;4.88;3.63;;;7.80;69.20;;;;;;5079479;28;20072;-82
2024/01/26 10:30:55;;;;;;;4.55;3.78;;;7.80;69.20;;;;;;5094933;28;20132;-81
2024/01/26 10:33:24;;;;;;;4.75;3.60;;;7.80;69.20;;;;;;5094439;28;20157;-81
2024/01/26 10:35:56;;;;;;;5.30;4.18;;;7.80;69.20;;;;;;5095109;28;20069;-80
2024/01/26 10:38:22;;;;;;;5.25;3.83;;;7.80;69.10;;;;;;5076611;28;20111;-80
2024/01/26 10:40:51;;;;;;;4.32;3.85;;;7.80;69.10;;;;;;5076881;28;20032;-80
2024/01/26 10:43:18;;;;;;;4.50;3.63;;;7.80;69.20;;;;;;5076637;28;20086;-81
2024/01/26 10:45:44;;;;;;;4.22;3.55;;;7.80;69.10;;;;;;5076690;28;20073;-80
2024/01/26 10:48:11;;;;;;;4.53;3.92;;;7.90;69.10;;;;;;5076719;28;20039;-81
2024/01/26 10:50:37;;;;;;;4.78;3.67;;;7.90;69.00;;;;;;5076595;28;20024;-82
2024/01/26 10:53:07;;;;;;;4.00;3.47;;;7.90;69.00;;;;;;5076626;28;20099;-80
2024/01/26 10:55:35;;;;;;;3.78;3.38;;;7.90;69.00;;;;;;5095105;28;20032;-79
2024/01/26 10:58:02;;;;;;;4.57;3.50;;;7.90;69.00;;;;;;5077418;28;20123;-80
2024/01/26 11:00:28;;;;;;;4.53;3.90;;;8.00;69.00;;;;;;5094909;28;20028;-74
2024/01/26 11:02:55;;;;;;;3.55;3.10;;;8.00;68.90;;;;;;5076301;28;20020;-74
2024/01/26 11:05:22;;;;;;;4.07;3.42;;;8.00;68.90;;;;;;5076353;28;20030;-75
2024/01/26 11:07:47;;;;;;;4.25;3.60;;;8.00;68.90;;;;;;5073852;28;20027;-79
2024/01/26 11:10:25;;;;;;;4.72;3.50;;;8.00;68.80;;;;;;5058323;28;20028;-83
2024/01/26 11:13:05;;;;;;;4.40;3.85;;;8.00;68.80;;;;;;5074329;28;20576;-77
2024/01/26 11:15:31;;;;;;;4.82;3.60;;;8.00;68.80;;;;;;5057655;28;20082;-82
2024/01/26 11:17:58;;;;;;;4.00;3.30;;;8.00;68.80;;;;;;5057423;28;20032;-79
2024/01/26 11:20:26;;;;;;;4.82;4.13;;;8.00;68.80;;;;;;5075815;28;20021;-79
2024/01/26 11:22:58;;;;;;;4.15;3.63;;;8.00;68.80;;;;;;5056271;28;20027;-74
2024/01/26 11:25:24;;;;;;;4.68;4.00;;;8.00;68.80;;;;;;5057977;28;20085;-72
2024/01/26 11:27:59;;;;;;;5.18;3.80;;;8.00;68.70;;;;;;5056159;28;20428;-73
2024/01/26 11:30:26;;;;;;;4.60;4.00;;;8.10;68.70;;;;;;5056093;28;20115;-73
2024/01/26 11:32:52;;;;;;;4.32;3.60;;;8.10;68.70;;;;;;5055940;28;20032;-77
2024/01/26 11:35:19;;;;;;;3.95;3.53;;;8.10;68.60;;;;;;5073787;28;20040;-76
2024/01/26 11:37:45;;;;;;;4.30;3.70;;;8.10;68.60;;;;;;5079001;28;20027;-73
2024/01/26 11:40:12;;;;;;;4.32;3.50;;;8.10;68.60;;;;;;5074942;28;20024;-76
2024/01/26 11:42:37;;;;;;;4.55;3.45;;;8.10;68.50;;;;;;5094505;28;20019;-76
2024/01/26 11:45:13;;;;;;;4.00;3.53;;;8.10;68.40;;;;;;5093646;28;20084;-77
2024/01/26 11:47:40;;;;;;;3.90;3.50;;;8.20;68.40;;;;;;5094084;28;20404;-76
2024/01/26 11:50:08;;;;;;;3.90;3.42;;;8.10;68.30;;;;;;5075699;28;20058;-74
2024/01/26 11:52:35;;;;;;;3.75;3.33;;;8.10;68.30;;;;;;5075646;28;20024;-72
2024/01/26 11:55:05;;;;;;;3.60;3.10;;;8.10;68.30;;;;;;5094159;28;20020;-73
2024/01/26 11:57:35;;;;;;;3.55;3.13;;;8.10;68.20;;;;;;5074581;28;20066;-73
2024/01/26 12:00:20;;;;;;;3.40;3.10;;;8.10;68.20;;;;;;5076376;28;20506;-72
2024/01/26 12:02:46;;;;;;;3.30;2.90;;;8.10;68.20;;;;;;5075954;28;20055;-71
2024/01/26 12:05:11;;;;;;;3.88;3.33;;;8.10;68.20;;;;;;5075616;28;20481;-78
2024/01/26 12:07:41;;;;;;;3.60;3.25;;;8.10;68.20;;;;;;5076167;28;20024;-73
2024/01/26 12:10:08;;;;;;;3.65;3.20;;;8.10;68.20;;;;;;5075608;28;20024;-76
2024/01/26 12:12:35;;;;;;;4.00;3.33;;;8.10;69.00;;;;;;5075818;28;20115;-77
2024/01/26 12:15:03;;;;;;;4.22;3.50;;;8.10;69.10;;;;;;5093089;28;20046;-71
2024/01/26 12:17:29;;;;;;;3.58;3.25;;;8.20;68.90;;;;;;5093110;28;20030;-69
2024/01/26 12:19:55;;;;;;;3.97;3.40;;;8.20;68.70;;;;;;5075502;28;20020;-71
2024/01/26 12:22:20;;;;;;;3.83;3.30;;;8.20;68.50;;;;;;5093599;28;20020;-73
2024/01/26 12:24:46;;;;;;;3.60;3.30;;;8.20;68.40;;;;;;5093370;28;20346;-76
2024/01/26 12:27:12;;;;;;;3.40;3.10;;;8.20;68.20;;;;;;5093356;28;20036;-76
2024/01/26 12:29:38;;;;;;;3.75;3.35;;;8.20;68.10;;;;;;5075500;28;20024;-74
2024/01/26 12:32:05;;;;;;;3.88;3.47;;;8.20;68.00;;;;;;5075218;28;20161;-73
2024/01/26 12:34:33;;;;;;;4.13;3.65;;;8.20;67.90;;;;;;5075261;28;20124;-76
2024/01/26 12:37:00;;;;;;;4.05;3.50;;;8.20;67.80;;;;;;5075191;28;20039;-74
2024/01/26 12:39:28;;;;;;;4.35;3.60;;;8.20;67.70;;;;;;5093226;28;20480;-73
2024/01/26 12:41:55;;;;;;;5.03;3.95;;;8.20;67.70;;;;;;5093675;28;20069;-72
2024/01/26 12:44:31;;;;;;;4.30;3.80;;;8.20;67.60;;;;;;5075356;28;20446;-71
2024/01/26 12:46:57;;;;;;;3.90;3.47;;;8.20;67.60;;;;;;5092923;28;20024;-72
2024/01/26 12:49:24;;;;;;;4.90;4.15;;;8.20;67.60;;;;;;5093030;28;20489;-72
2024/01/26 12:51:54;;;;;;;4.43;3.65;;;8.20;68.10;;;;;;5074979;28;20116;-73
2024/01/26 12:54:20;;;;;;;4.78;3.80;;;8.30;67.50;;;;;;5075082;28;20046;-72